sensor_id;sensor_type;location;lat;lon;timestamp;P1;durP1;ratioP1;P2;durP2;ratioP2
70126;SDS011;57491;42.694;23.314;2024-01-10T00:01:51;6.13;;;3.88;;
70126;SDS011;57491;42.694;23.314;2024-01-10T00:04:19;4.55;;;3.08;;
70126;SDS011;57491;42.694;23.314;2024-01-10T00:06:47;8.43;;;3.40;;
70126;SDS011;57491;42.694;23.314;2024-01-10T00:09:15;4.35;;;2.88;;
70126;SDS011;57491;42.694;23.314;2024-01-10T00:11:42;7.10;;;3.30;;
70126;SDS011;57491;42.694;23.314;2024-01-10T00:14:09;7.38;;;3.28;;
70126;SDS011;57491;42.694;23.314;2024-01-10T00:16:37;5.10;;;3.15;;
70126;SDS011;57491;42.694;23.314;2024-01-10T00:19:04;5.53;;;2.97;;
70126;SDS011;57491;42.694;23.314;2024-01-10T00:21:31;4.07;;;2.53;;
70126;SDS011;57491;42.694;23.314;2024-01-10T00:24:01;8.18;;;3.03;;
70126;SDS011;57491;42.694;23.314;2024-01-10T00:26:29;5.57;;;3.50;;
70126;SDS011;57491;42.694;23.314;2024-01-10T00:28:56;7.47;;;3.40;;
70126;SDS011;57491;42.694;23.314;2024-01-10T00:31:24;5.80;;;2.83;;
70126;SDS011;57491;42.694;23.314;2024-01-10T00:33:51;5.18;;;2.85;;
70126;SDS011;57491;42.694;23.314;2024-01-10T00:36:18;6.40;;;2.75;;
70126;SDS011;57491;42.694;23.314;2024-01-10T00:38:46;5.03;;;2.83;;
70126;SDS011;57491;42.694;23.314;2024-01-10T00:41:14;6.28;;;3.22;;
70126;SDS011;57491;42.694;23.314;2024-01-10T00:43:42;4.22;;;2.90;;
70126;SDS011;57491;42.694;23.314;2024-01-10T00:46:09;6.30;;;3.20;;
70126;SDS011;57491;42.694;23.314;2024-01-10T00:48:36;7.40;;;3.10;;
70126;SDS011;57491;42.694;23.314;2024-01-10T00:51:04;4.50;;;2.88;;
70126;SDS011;57491;42.694;23.314;2024-01-10T00:53:34;5.10;;;3.70;;
70126;SDS011;57491;42.694;23.314;2024-01-10T00:56:01;4.68;;;3.05;;
70126;SDS011;57491;42.694;23.314;2024-01-10T00:58:30;5.70;;;3.05;;
70126;SDS011;57491;42.694;23.314;2024-01-10T01:00:57;5.65;;;3.30;;
70126;SDS011;57491;42.694;23.314;2024-01-10T01:03:25;6.55;;;3.40;;
70126;SDS011;57491;42.694;23.314;2024-01-10T01:05:52;5.47;;;3.08;;
70126;SDS011;57491;42.694;23.314;2024-01-10T01:08:19;6.93;;;3.35;;
70126;SDS011;57491;42.694;23.314;2024-01-10T01:10:47;3.55;;;2.42;;
70126;SDS011;57491;42.694;23.314;2024-01-10T01:13:14;6.35;;;2.72;;
70126;SDS011;57491;42.694;23.314;2024-01-10T01:15:43;6.70;;;2.85;;
70126;SDS011;57491;42.694;23.314;2024-01-10T01:18:11;5.70;;;3.25;;
70126;SDS011;57491;42.694;23.314;2024-01-10T01:20:38;3.40;;;2.28;;
70126;SDS011;57491;42.694;23.314;2024-01-10T01:23:05;4.75;;;2.90;;
70126;SDS011;57491;42.694;23.314;2024-01-10T01:25:33;4.53;;;2.65;;
70126;SDS011;57491;42.694;23.314;2024-01-10T01:28:00;6.97;;;3.35;;
70126;SDS011;57491;42.694;23.314;2024-01-10T01:30:27;4.85;;;3.10;;
70126;SDS011;57491;42.694;23.314;2024-01-10T01:32:56;4.30;;;2.70;;
70126;SDS011;57491;42.694;23.314;2024-01-10T01:35:23;5.28;;;2.72;;
70126;SDS011;57491;42.694;23.314;2024-01-10T01:37:51;6.72;;;2.72;;
70126;SDS011;57491;42.694;23.314;2024-01-10T01:40:18;4.55;;;3.10;;
70126;SDS011;57491;42.694;23.314;2024-01-10T01:42:45;5.70;;;3.20;;
70126;SDS011;57491;42.694;23.314;2024-01-10T01:45:13;5.20;;;3.55;;
70126;SDS011;57491;42.694;23.314;2024-01-10T01:47:40;6.10;;;3.55;;
70126;SDS011;57491;42.694;23.314;2024-01-10T01:50:10;6.13;;;4.03;;
70126;SDS011;57491;42.694;23.314;2024-01-10T01:52:37;6.90;;;4.07;;
70126;SDS011;57491;42.694;23.314;2024-01-10T01:55:05;6.65;;;4.10;;
70126;SDS011;57491;42.694;23.314;2024-01-10T01:57:34;5.85;;;3.72;;
70126;SDS011;57491;42.694;23.314;2024-01-10T02:00:03;12.43;;;4.18;;
70126;SDS011;57491;42.694;23.314;2024-01-10T02:02:30;6.20;;;3.67;;
70126;SDS011;57491;42.694;23.314;2024-01-10T02:04:58;4.60;;;3.10;;
70126;SDS011;57491;42.694;23.314;2024-01-10T02:07:27;4.25;;;3.10;;
70126;SDS011;57491;42.694;23.314;2024-01-10T02:09:54;7.28;;;3.90;;
70126;SDS011;57491;42.694;23.314;2024-01-10T02:12:21;4.43;;;3.10;;
70126;SDS011;57491;42.694;23.314;2024-01-10T02:14:49;5.32;;;3.83;;
70126;SDS011;57491;42.694;23.314;2024-01-10T02:17:16;8.68;;;3.05;;
70126;SDS011;57491;42.694;23.314;2024-01-10T02:19:43;3.53;;;2.53;;
70126;SDS011;57491;42.694;23.314;2024-01-10T02:22:10;4.05;;;2.33;;
70126;SDS011;57491;42.694;23.314;2024-01-10T02:24:39;5.75;;;2.88;;
70126;SDS011;57491;42.694;23.314;2024-01-10T02:27:08;4.03;;;2.47;;
70126;SDS011;57491;42.694;23.314;2024-01-10T02:29:35;3.55;;;2.20;;
70126;SDS011;57491;42.694;23.314;2024-01-10T02:32:03;9.05;;;2.70;;
70126;SDS011;57491;42.694;23.314;2024-01-10T02:36:58;4.17;;;2.83;;
70126;SDS011;57491;42.694;23.314;2024-01-10T02:39:25;2.58;;;2.35;;
70126;SDS011;57491;42.694;23.314;2024-01-10T02:41:52;3.53;;;2.58;;
70126;SDS011;57491;42.694;23.314;2024-01-10T02:44:21;3.67;;;2.53;;
70126;SDS011;57491;42.694;23.314;2024-01-10T02:46:49;3.45;;;2.90;;
70126;SDS011;57491;42.694;23.314;2024-01-10T02:49:16;3.45;;;2.72;;
70126;SDS011;57491;42.694;23.314;2024-01-10T02:51:45;5.53;;;3.65;;
70126;SDS011;57491;42.694;23.314;2024-01-10T02:56:39;5.40;;;2.95;;
70126;SDS011;57491;42.694;23.314;2024-01-10T02:59:07;4.50;;;2.60;;
70126;SDS011;57491;42.694;23.314;2024-01-10T03:01:36;2.90;;;2.55;;
70126;SDS011;57491;42.694;23.314;2024-01-10T03:04:03;4.82;;;2.92;;
70126;SDS011;57491;42.694;23.314;2024-01-10T03:06:31;3.55;;;2.40;;
70126;SDS011;57491;42.694;23.314;2024-01-10T03:08:58;6.40;;;2.90;;
70126;SDS011;57491;42.694;23.314;2024-01-10T03:11:25;5.10;;;2.58;;
70126;SDS011;57491;42.694;23.314;2024-01-10T03:14:00;3.08;;;2.35;;
70126;SDS011;57491;42.694;23.314;2024-01-10T03:16:29;4.80;;;2.55;;
70126;SDS011;57491;42.694;23.314;2024-01-10T03:18:58;4.55;;;2.55;;
70126;SDS011;57491;42.694;23.314;2024-01-10T03:21:26;5.38;;;2.70;;
70126;SDS011;57491;42.694;23.314;2024-01-10T03:23:54;4.10;;;2.35;;
70126;SDS011;57491;42.694;23.314;2024-01-10T03:26:22;3.92;;;1.85;;
70126;SDS011;57491;42.694;23.314;2024-01-10T03:28:49;3.25;;;2.25;;
70126;SDS011;57491;42.694;23.314;2024-01-10T03:31:17;7.53;;;2.90;;
70126;SDS011;57491;42.694;23.314;2024-01-10T03:33:44;8.57;;;3.53;;
70126;SDS011;57491;42.694;23.314;2024-01-10T03:36:14;4.93;;;3.13;;
70126;SDS011;57491;42.694;23.314;2024-01-10T03:38:43;7.55;;;3.50;;
70126;SDS011;57491;42.694;23.314;2024-01-10T03:41:12;7.13;;;3.53;;
70126;SDS011;57491;42.694;23.314;2024-01-10T03:43:40;7.60;;;3.67;;
70126;SDS011;57491;42.694;23.314;2024-01-10T03:46:07;9.32;;;4.20;;
70126;SDS011;57491;42.694;23.314;2024-01-10T03:48:34;7.00;;;3.65;;
70126;SDS011;57491;42.694;23.314;2024-01-10T03:53:31;6.28;;;2.75;;
70126;SDS011;57491;42.694;23.314;2024-01-10T03:55:58;6.55;;;3.53;;
70126;SDS011;57491;42.694;23.314;2024-01-10T03:58:25;6.65;;;3.30;;
70126;SDS011;57491;42.694;23.314;2024-01-10T04:00:53;7.55;;;2.60;;
70126;SDS011;57491;42.694;23.314;2024-01-10T04:03:20;5.40;;;2.80;;
70126;SDS011;57491;42.694;23.314;2024-01-10T04:05:47;4.32;;;2.47;;
70126;SDS011;57491;42.694;23.314;2024-01-10T04:08:14;8.90;;;3.58;;
70126;SDS011;57491;42.694;23.314;2024-01-10T04:10:44;4.70;;;3.20;;
70126;SDS011;57491;42.694;23.314;2024-01-10T04:13:11;6.40;;;3.53;;
70126;SDS011;57491;42.694;23.314;2024-01-10T04:15:38;4.85;;;2.90;;
70126;SDS011;57491;42.694;23.314;2024-01-10T04:18:05;4.38;;;2.95;;
70126;SDS011;57491;42.694;23.314;2024-01-10T04:20:33;4.35;;;2.47;;
70126;SDS011;57491;42.694;23.314;2024-01-10T04:23:00;4.65;;;2.80;;
70126;SDS011;57491;42.694;23.314;2024-01-10T04:25:27;5.70;;;3.05;;
70126;SDS011;57491;42.694;23.314;2024-01-10T04:27:56;7.40;;;3.42;;
70126;SDS011;57491;42.694;23.314;2024-01-10T04:30:24;5.95;;;2.78;;
70126;SDS011;57491;42.694;23.314;2024-01-10T04:32:51;6.22;;;3.08;;
70126;SDS011;57491;42.694;23.314;2024-01-10T04:35:18;6.72;;;3.75;;
70126;SDS011;57491;42.694;23.314;2024-01-10T04:37:46;6.00;;;3.47;;
70126;SDS011;57491;42.694;23.314;2024-01-10T04:40:13;6.15;;;3.50;;
70126;SDS011;57491;42.694;23.314;2024-01-10T04:42:40;8.57;;;3.92;;
70126;SDS011;57491;42.694;23.314;2024-01-10T04:45:09;10.45;;;3.70;;
70126;SDS011;57491;42.694;23.314;2024-01-10T04:47:37;9.00;;;4.03;;
70126;SDS011;57491;42.694;23.314;2024-01-10T04:50:05;8.25;;;3.72;;
70126;SDS011;57491;42.694;23.314;2024-01-10T04:52:33;6.10;;;3.55;;
70126;SDS011;57491;42.694;23.314;2024-01-10T04:55:00;7.75;;;3.38;;
70126;SDS011;57491;42.694;23.314;2024-01-10T04:59:55;6.15;;;2.85;;
70126;SDS011;57491;42.694;23.314;2024-01-10T05:02:24;8.70;;;4.57;;
70126;SDS011;57491;42.694;23.314;2024-01-10T05:04:52;5.10;;;3.30;;
70126;SDS011;57491;42.694;23.314;2024-01-10T05:07:19;6.70;;;2.80;;
70126;SDS011;57491;42.694;23.314;2024-01-10T05:09:46;5.07;;;2.80;;
70126;SDS011;57491;42.694;23.314;2024-01-10T05:12:13;4.90;;;2.75;;
70126;SDS011;57491;42.694;23.314;2024-01-10T05:14:41;5.40;;;3.25;;
70126;SDS011;57491;42.694;23.314;2024-01-10T05:17:08;7.28;;;3.08;;
70126;SDS011;57491;42.694;23.314;2024-01-10T05:19:37;6.35;;;3.53;;
70126;SDS011;57491;42.694;23.314;2024-01-10T05:22:05;4.78;;;3.42;;
70126;SDS011;57491;42.694;23.314;2024-01-10T05:24:33;5.20;;;3.90;;
70126;SDS011;57491;42.694;23.314;2024-01-10T05:27:01;7.10;;;3.17;;
70126;SDS011;57491;42.694;23.314;2024-01-10T05:29:28;10.90;;;2.85;;
70126;SDS011;57491;42.694;23.314;2024-01-10T05:31:55;4.82;;;2.60;;
70126;SDS011;57491;42.694;23.314;2024-01-10T05:34:23;4.50;;;2.72;;
70126;SDS011;57491;42.694;23.314;2024-01-10T05:36:52;6.47;;;3.00;;
70126;SDS011;57491;42.694;23.314;2024-01-10T05:39:19;5.72;;;2.53;;
70126;SDS011;57491;42.694;23.314;2024-01-10T05:41:47;5.70;;;3.42;;
70126;SDS011;57491;42.694;23.314;2024-01-10T05:44:15;6.68;;;3.40;;
70126;SDS011;57491;42.694;23.314;2024-01-10T05:46:43;6.32;;;3.17;;
70126;SDS011;57491;42.694;23.314;2024-01-10T05:49:10;7.43;;;3.53;;
70126;SDS011;57491;42.694;23.314;2024-01-10T05:51:39;7.97;;;2.92;;
70126;SDS011;57491;42.694;23.314;2024-01-10T05:54:08;5.20;;;2.58;;
70126;SDS011;57491;42.694;23.314;2024-01-10T05:56:35;4.25;;;2.08;;
70126;SDS011;57491;42.694;23.314;2024-01-10T05:59:03;4.60;;;2.47;;
70126;SDS011;57491;42.694;23.314;2024-01-10T06:01:30;6.37;;;2.40;;
70126;SDS011;57491;42.694;23.314;2024-01-10T06:03:57;5.28;;;2.50;;
70126;SDS011;57491;42.694;23.314;2024-01-10T06:06:24;4.27;;;2.30;;
70126;SDS011;57491;42.694;23.314;2024-01-10T06:08:53;6.22;;;3.58;;
70126;SDS011;57491;42.694;23.314;2024-01-10T06:11:22;9.65;;;4.45;;
70126;SDS011;57491;42.694;23.314;2024-01-10T06:13:49;6.95;;;3.55;;
70126;SDS011;57491;42.694;23.314;2024-01-10T06:16:16;9.15;;;4.35;;
70126;SDS011;57491;42.694;23.314;2024-01-10T06:18:43;7.03;;;3.07;;
70126;SDS011;57491;42.694;23.314;2024-01-10T06:21:10;5.33;;;2.60;;
70126;SDS011;57491;42.694;23.314;2024-01-10T06:23:40;5.93;;;3.00;;
70126;SDS011;57491;42.694;23.314;2024-01-10T06:26:07;6.90;;;3.40;;
70126;SDS011;57491;42.694;23.314;2024-01-10T06:28:36;8.02;;;3.97;;
70126;SDS011;57491;42.694;23.314;2024-01-10T06:31:04;6.63;;;3.45;;
70126;SDS011;57491;42.694;23.314;2024-01-10T06:33:32;13.32;;;4.30;;
70126;SDS011;57491;42.694;23.314;2024-01-10T06:35:59;7.82;;;5.05;;
70126;SDS011;57491;42.694;23.314;2024-01-10T06:38:26;9.23;;;4.10;;
70126;SDS011;57491;42.694;23.314;2024-01-10T06:40:53;6.70;;;3.20;;
70126;SDS011;57491;42.694;23.314;2024-01-10T06:43:21;7.63;;;3.70;;
70126;SDS011;57491;42.694;23.314;2024-01-10T06:45:50;9.70;;;4.05;;
70126;SDS011;57491;42.694;23.314;2024-01-10T06:48:18;6.25;;;3.20;;
70126;SDS011;57491;42.694;23.314;2024-01-10T06:50:45;10.77;;;4.50;;
70126;SDS011;57491;42.694;23.314;2024-01-10T06:53:13;10.13;;;5.82;;
70126;SDS011;57491;42.694;23.314;2024-01-10T06:55:41;17.65;;;6.88;;
70126;SDS011;57491;42.694;23.314;2024-01-10T06:58:08;10.40;;;4.85;;
70126;SDS011;57491;42.694;23.314;2024-01-10T07:00:36;14.15;;;4.25;;
70126;SDS011;57491;42.694;23.314;2024-01-10T07:03:05;12.20;;;5.47;;
70126;SDS011;57491;42.694;23.314;2024-01-10T07:05:33;10.40;;;4.75;;
70126;SDS011;57491;42.694;23.314;2024-01-10T07:08:01;8.45;;;5.32;;
70126;SDS011;57491;42.694;23.314;2024-01-10T07:10:29;12.43;;;5.00;;
70126;SDS011;57491;42.694;23.314;2024-01-10T07:12:57;8.73;;;4.85;;
70126;SDS011;57491;42.694;23.314;2024-01-10T07:15:24;16.60;;;5.68;;
70126;SDS011;57491;42.694;23.314;2024-01-10T07:17:51;13.07;;;4.22;;
70126;SDS011;57491;42.694;23.314;2024-01-10T07:20:20;9.07;;;4.97;;
70126;SDS011;57491;42.694;23.314;2024-01-10T07:22:49;7.80;;;4.72;;
70126;SDS011;57491;42.694;23.314;2024-01-10T07:27:44;14.38;;;5.15;;
70126;SDS011;57491;42.694;23.314;2024-01-10T07:30:12;10.25;;;3.90;;
70126;SDS011;57491;42.694;23.314;2024-01-10T07:35:08;10.80;;;3.97;;
70126;SDS011;57491;42.694;23.314;2024-01-10T07:37:38;14.05;;;4.13;;
70126;SDS011;57491;42.694;23.314;2024-01-10T07:40:07;8.10;;;3.67;;
70126;SDS011;57491;42.694;23.314;2024-01-10T07:42:36;6.95;;;3.03;;
70126;SDS011;57491;42.694;23.314;2024-01-10T07:45:05;7.32;;;4.45;;
70126;SDS011;57491;42.694;23.314;2024-01-10T07:47:34;7.82;;;3.80;;
70126;SDS011;57491;42.694;23.314;2024-01-10T07:50:04;7.43;;;3.53;;
70126;SDS011;57491;42.694;23.314;2024-01-10T07:52:32;7.30;;;3.47;;
70126;SDS011;57491;42.694;23.314;2024-01-10T07:57:30;11.93;;;4.30;;
70126;SDS011;57491;42.694;23.314;2024-01-10T07:59:58;7.55;;;3.30;;
70126;SDS011;57491;42.694;23.314;2024-01-10T08:02:29;8.93;;;4.13;;
70126;SDS011;57491;42.694;23.314;2024-01-10T08:05:03;8.07;;;3.60;;
70126;SDS011;57491;42.694;23.314;2024-01-10T08:07:34;10.65;;;8.32;;
70126;SDS011;57491;42.694;23.314;2024-01-10T08:13:25;6.05;;;3.90;;
70126;SDS011;57491;42.694;23.314;2024-01-10T08:15:53;10.88;;;4.63;;
70126;SDS011;57491;42.694;23.314;2024-01-10T08:18:20;10.27;;;5.83;;
70126;SDS011;57491;42.694;23.314;2024-01-10T08:20:48;14.23;;;7.90;;
70126;SDS011;57491;42.694;23.314;2024-01-10T08:23:15;14.98;;;5.72;;
70126;SDS011;57491;42.694;23.314;2024-01-10T08:25:44;12.73;;;5.03;;
70126;SDS011;57491;42.694;23.314;2024-01-10T08:28:11;10.80;;;4.70;;
70126;SDS011;57491;42.694;23.314;2024-01-10T08:30:40;11.88;;;5.80;;
70126;SDS011;57491;42.694;23.314;2024-01-10T08:33:07;9.70;;;4.82;;
70126;SDS011;57491;42.694;23.314;2024-01-10T08:35:34;6.97;;;3.67;;
70126;SDS011;57491;42.694;23.314;2024-01-10T08:38:02;8.80;;;4.22;;
70126;SDS011;57491;42.694;23.314;2024-01-10T08:40:32;9.13;;;4.05;;
70126;SDS011;57491;42.694;23.314;2024-01-10T08:43:00;11.77;;;4.10;;
70126;SDS011;57491;42.694;23.314;2024-01-10T08:45:27;6.45;;;3.92;;
70126;SDS011;57491;42.694;23.314;2024-01-10T08:47:56;8.23;;;3.47;;
70126;SDS011;57491;42.694;23.314;2024-01-10T08:50:24;7.85;;;3.42;;
70126;SDS011;57491;42.694;23.314;2024-01-10T08:52:53;8.57;;;5.15;;
70126;SDS011;57491;42.694;23.314;2024-01-10T08:55:20;7.82;;;4.20;;
70126;SDS011;57491;42.694;23.314;2024-01-10T08:57:47;7.10;;;4.30;;
70126;SDS011;57491;42.694;23.314;2024-01-10T09:00:15;9.43;;;4.35;;
70126;SDS011;57491;42.694;23.314;2024-01-10T09:02:43;6.80;;;4.32;;
70126;SDS011;57491;42.694;23.314;2024-01-10T09:05:12;9.10;;;4.60;;
70126;SDS011;57491;42.694;23.314;2024-01-10T09:07:39;7.50;;;3.88;;
70126;SDS011;57491;42.694;23.314;2024-01-10T09:10:07;11.55;;;4.43;;
70126;SDS011;57491;42.694;23.314;2024-01-10T09:12:35;7.10;;;4.40;;
70126;SDS011;57491;42.694;23.314;2024-01-10T09:15:04;15.90;;;7.25;;
70126;SDS011;57491;42.694;23.314;2024-01-10T09:17:34;14.98;;;7.07;;
70126;SDS011;57491;42.694;23.314;2024-01-10T09:20:01;14.60;;;6.50;;
70126;SDS011;57491;42.694;23.314;2024-01-10T09:22:30;8.32;;;5.15;;
70126;SDS011;57491;42.694;23.314;2024-01-10T09:24:57;9.80;;;5.25;;
70126;SDS011;57491;42.694;23.314;2024-01-10T09:27:29;18.15;;;6.47;;
70126;SDS011;57491;42.694;23.314;2024-01-10T09:29:57;7.82;;;5.07;;
70126;SDS011;57491;42.694;23.314;2024-01-10T09:32:24;7.82;;;5.07;;
70126;SDS011;57491;42.694;23.314;2024-01-10T09:34:52;15.38;;;6.28;;
70126;SDS011;57491;42.694;23.314;2024-01-10T09:37:19;9.77;;;5.28;;
70126;SDS011;57491;42.694;23.314;2024-01-10T09:39:48;14.35;;;5.93;;
70126;SDS011;57491;42.694;23.314;2024-01-10T09:42:18;12.23;;;5.95;;
70126;SDS011;57491;42.694;23.314;2024-01-10T09:44:46;8.35;;;5.15;;
70126;SDS011;57491;42.694;23.314;2024-01-10T09:47:15;11.32;;;5.43;;
70126;SDS011;57491;42.694;23.314;2024-01-10T09:49:43;8.27;;;5.20;;
70126;SDS011;57491;42.694;23.314;2024-01-10T09:52:15;9.07;;;5.00;;
70126;SDS011;57491;42.694;23.314;2024-01-10T09:54:48;9.57;;;7.18;;
70126;SDS011;57491;42.694;23.314;2024-01-10T09:57:20;11.13;;;6.38;;
70126;SDS011;57491;42.694;23.314;2024-01-10T09:59:49;15.00;;;7.68;;
70126;SDS011;57491;42.694;23.314;2024-01-10T10:02:18;29.23;;;15.10;;
70126;SDS011;57491;42.694;23.314;2024-01-10T10:04:49;18.25;;;7.90;;
70126;SDS011;57491;42.694;23.314;2024-01-10T10:07:21;23.80;;;11.60;;
70126;SDS011;57491;42.694;23.314;2024-01-10T10:09:52;11.90;;;6.40;;
70126;SDS011;57491;42.694;23.314;2024-01-10T10:12:22;14.88;;;6.38;;
70126;SDS011;57491;42.694;23.314;2024-01-10T10:14:49;19.05;;;8.82;;
70126;SDS011;57491;42.694;23.314;2024-01-10T10:17:17;18.23;;;9.63;;
70126;SDS011;57491;42.694;23.314;2024-01-10T10:19:44;20.52;;;9.45;;
70126;SDS011;57491;42.694;23.314;2024-01-10T10:22:13;21.10;;;9.18;;
70126;SDS011;57491;42.694;23.314;2024-01-10T10:24:40;23.23;;;8.50;;
70126;SDS011;57491;42.694;23.314;2024-01-10T10:27:12;15.95;;;6.80;;
70126;SDS011;57491;42.694;23.314;2024-01-10T10:29:40;11.57;;;6.78;;
70126;SDS011;57491;42.694;23.314;2024-01-10T10:32:08;8.90;;;6.60;;
70126;SDS011;57491;42.694;23.314;2024-01-10T10:39:30;15.45;;;6.85;;
70126;SDS011;57491;42.694;23.314;2024-01-10T10:41:59;29.50;;;9.73;;
70126;SDS011;57491;42.694;23.314;2024-01-10T10:44:29;11.57;;;6.65;;
70126;SDS011;57491;42.694;23.314;2024-01-10T10:47:04;18.17;;;8.88;;
70126;SDS011;57491;42.694;23.314;2024-01-10T10:49:36;13.35;;;6.85;;
70126;SDS011;57491;42.694;23.314;2024-01-10T10:52:10;9.93;;;7.53;;
70126;SDS011;57491;42.694;23.314;2024-01-10T10:54:38;14.60;;;8.07;;
70126;SDS011;57491;42.694;23.314;2024-01-10T10:57:06;10.80;;;7.30;;
70126;SDS011;57491;42.694;23.314;2024-01-10T10:59:37;11.30;;;8.07;;
70126;SDS011;57491;42.694;23.314;2024-01-10T11:02:05;11.38;;;7.35;;
70126;SDS011;57491;42.694;23.314;2024-01-10T11:04:35;19.15;;;8.80;;
70126;SDS011;57491;42.694;23.314;2024-01-10T11:07:03;16.17;;;8.85;;
70126;SDS011;57491;42.694;23.314;2024-01-10T11:09:35;12.68;;;9.65;;
70126;SDS011;57491;42.694;23.314;2024-01-10T11:12:08;15.43;;;8.63;;
70126;SDS011;57491;42.694;23.314;2024-01-10T11:14:55;12.80;;;8.55;;
70126;SDS011;57491;42.694;23.314;2024-01-10T11:17:43;16.55;;;9.93;;
70126;SDS011;57491;42.694;23.314;2024-01-10T11:20:30;16.52;;;9.93;;
70126;SDS011;57491;42.694;23.314;2024-01-10T11:23:25;15.63;;;9.35;;
70126;SDS011;57491;42.694;23.314;2024-01-10T11:26:04;15.43;;;10.10;;
70126;SDS011;57491;42.694;23.314;2024-01-10T11:28:35;14.98;;;9.73;;
70126;SDS011;57491;42.694;23.314;2024-01-10T11:31:05;18.80;;;11.05;;
70126;SDS011;57491;42.694;23.314;2024-01-10T11:33:34;15.40;;;11.18;;
70126;SDS011;57491;42.694;23.314;2024-01-10T11:36:14;15.23;;;9.98;;
70126;SDS011;57491;42.694;23.314;2024-01-10T11:38:43;20.90;;;12.52;;
70126;SDS011;57491;42.694;23.314;2024-01-10T11:41:21;19.17;;;10.95;;
70126;SDS011;57491;42.694;23.314;2024-01-10T11:46:58;15.85;;;10.50;;
70126;SDS011;57491;42.694;23.314;2024-01-10T11:49:26;14.80;;;9.65;;
70126;SDS011;57491;42.694;23.314;2024-01-10T11:51:55;14.07;;;9.82;;
70126;SDS011;57491;42.694;23.314;2024-01-10T11:54:40;14.55;;;10.20;;
70126;SDS011;57491;42.694;23.314;2024-01-10T11:57:13;13.73;;;10.15;;
70126;SDS011;57491;42.694;23.314;2024-01-10T11:59:45;16.50;;;11.48;;
70126;SDS011;57491;42.694;23.314;2024-01-10T12:02:15;13.55;;;9.65;;
70126;SDS011;57491;42.694;23.314;2024-01-10T12:04:43;18.70;;;10.65;;
70126;SDS011;57491;42.694;23.314;2024-01-10T12:07:11;16.83;;;10.43;;
70126;SDS011;57491;42.694;23.314;2024-01-10T12:09:39;19.98;;;11.18;;
70126;SDS011;57491;42.694;23.314;2024-01-10T12:12:07;14.20;;;10.27;;
70126;SDS011;57491;42.694;23.314;2024-01-10T12:14:36;16.48;;;11.05;;
70126;SDS011;57491;42.694;23.314;2024-01-10T12:17:03;18.05;;;11.10;;
70126;SDS011;57491;42.694;23.314;2024-01-10T12:19:35;15.73;;;10.40;;
70126;SDS011;57491;42.694;23.314;2024-01-10T12:22:03;20.92;;;10.82;;
70126;SDS011;57491;42.694;23.314;2024-01-10T12:24:31;19.88;;;12.55;;
70126;SDS011;57491;42.694;23.314;2024-01-10T12:26:58;17.35;;;11.50;;
70126;SDS011;57491;42.694;23.314;2024-01-10T12:29:26;25.63;;;14.35;;
70126;SDS011;57491;42.694;23.314;2024-01-10T12:34:20;15.93;;;11.07;;
70126;SDS011;57491;42.694;23.314;2024-01-10T12:36:50;15.27;;;10.95;;
70126;SDS011;57491;42.694;23.314;2024-01-10T12:39:22;15.98;;;10.35;;
70126;SDS011;57491;42.694;23.314;2024-01-10T12:41:51;20.42;;;11.52;;
70126;SDS011;57491;42.694;23.314;2024-01-10T12:44:19;17.83;;;13.18;;
70126;SDS011;57491;42.694;23.314;2024-01-10T12:46:49;13.95;;;10.68;;
70126;SDS011;57491;42.694;23.314;2024-01-10T12:49:18;18.98;;;12.18;;
70126;SDS011;57491;42.694;23.314;2024-01-10T12:51:47;17.08;;;11.63;;
70126;SDS011;57491;42.694;23.314;2024-01-10T12:54:16;20.90;;;13.07;;
70126;SDS011;57491;42.694;23.314;2024-01-10T12:56:43;17.17;;;11.57;;
70126;SDS011;57491;42.694;23.314;2024-01-10T13:01:39;16.58;;;11.77;;
70126;SDS011;57491;42.694;23.314;2024-01-10T13:04:07;15.15;;;11.82;;
70126;SDS011;57491;42.694;23.314;2024-01-10T13:06:34;19.83;;;12.20;;
70126;SDS011;57491;42.694;23.314;2024-01-10T13:11:30;15.43;;;10.85;;
70126;SDS011;57491;42.694;23.314;2024-01-10T13:13:58;18.30;;;10.55;;
70126;SDS011;57491;42.694;23.314;2024-01-10T13:16:26;19.23;;;12.13;;
70126;SDS011;57491;42.694;23.314;2024-01-10T13:18:53;23.83;;;13.18;;
70126;SDS011;57491;42.694;23.314;2024-01-10T13:21:24;20.75;;;12.93;;
70126;SDS011;57491;42.694;23.314;2024-01-10T13:23:52;22.25;;;12.55;;
70126;SDS011;57491;42.694;23.314;2024-01-10T13:28:48;15.27;;;10.85;;
70126;SDS011;57491;42.694;23.314;2024-01-10T13:31:16;26.25;;;11.32;;
70126;SDS011;57491;42.694;23.314;2024-01-10T13:33:43;18.38;;;11.02;;
70126;SDS011;57491;42.694;23.314;2024-01-10T13:36:11;22.35;;;10.90;;
70126;SDS011;57491;42.694;23.314;2024-01-10T13:38:38;16.80;;;10.25;;
70126;SDS011;57491;42.694;23.314;2024-01-10T13:41:05;22.42;;;11.07;;
70126;SDS011;57491;42.694;23.314;2024-01-10T13:43:33;14.77;;;10.05;;
70126;SDS011;57491;42.694;23.314;2024-01-10T13:48:29;16.95;;;10.38;;
70126;SDS011;57491;42.694;23.314;2024-01-10T13:50:57;15.70;;;10.73;;
70126;SDS011;57491;42.694;23.314;2024-01-10T13:53:24;16.98;;;10.55;;
70126;SDS011;57491;42.694;23.314;2024-01-10T13:55:51;17.20;;;10.02;;
70126;SDS011;57491;42.694;23.314;2024-01-10T13:58:19;20.33;;;10.20;;
70126;SDS011;57491;42.694;23.314;2024-01-10T14:00:49;15.60;;;10.13;;
70126;SDS011;57491;42.694;23.314;2024-01-10T14:03:18;18.23;;;10.32;;
70126;SDS011;57491;42.694;23.314;2024-01-10T14:05:47;19.13;;;10.98;;
70126;SDS011;57491;42.694;23.314;2024-01-10T14:08:17;18.00;;;11.75;;
70126;SDS011;57491;42.694;23.314;2024-01-10T14:10:47;18.73;;;10.60;;
70126;SDS011;57491;42.694;23.314;2024-01-10T14:13:18;16.02;;;9.90;;
70126;SDS011;57491;42.694;23.314;2024-01-10T14:16:02;19.52;;;10.82;;
70126;SDS011;57491;42.694;23.314;2024-01-10T14:18:45;18.80;;;10.70;;
70126;SDS011;57491;42.694;23.314;2024-01-10T14:21:27;14.40;;;9.27;;
70126;SDS011;57491;42.694;23.314;2024-01-10T14:24:01;14.85;;;8.82;;
70126;SDS011;57491;42.694;23.314;2024-01-10T14:26:50;17.20;;;10.43;;
70126;SDS011;57491;42.694;23.314;2024-01-10T14:29:17;17.58;;;9.65;;
70126;SDS011;57491;42.694;23.314;2024-01-10T14:31:44;19.65;;;10.52;;
70126;SDS011;57491;42.694;23.314;2024-01-10T14:34:13;22.65;;;11.73;;
70126;SDS011;57491;42.694;23.314;2024-01-10T14:36:40;19.45;;;11.23;;
70126;SDS011;57491;42.694;23.314;2024-01-10T14:39:08;17.75;;;11.32;;
70126;SDS011;57491;42.694;23.314;2024-01-10T14:41:38;17.23;;;11.18;;
70126;SDS011;57491;42.694;23.314;2024-01-10T14:46:33;17.27;;;9.63;;
70126;SDS011;57491;42.694;23.314;2024-01-10T14:49:02;16.77;;;9.57;;
70126;SDS011;57491;42.694;23.314;2024-01-10T14:51:31;20.58;;;11.07;;
70126;SDS011;57491;42.694;23.314;2024-01-10T14:54:01;20.38;;;9.98;;
70126;SDS011;57491;42.694;23.314;2024-01-10T14:56:29;18.95;;;10.43;;
70126;SDS011;57491;42.694;23.314;2024-01-10T14:58:57;16.80;;;10.40;;
70126;SDS011;57491;42.694;23.314;2024-01-10T15:01:26;22.92;;;10.52;;
70126;SDS011;57491;42.694;23.314;2024-01-10T15:03:55;18.50;;;10.43;;
70126;SDS011;57491;42.694;23.314;2024-01-10T15:06:22;19.27;;;10.67;;
70126;SDS011;57491;42.694;23.314;2024-01-10T15:08:53;24.13;;;11.15;;
70126;SDS011;57491;42.694;23.314;2024-01-10T15:11:20;16.40;;;10.13;;
70126;SDS011;57491;42.694;23.314;2024-01-10T15:13:47;19.17;;;12.37;;
70126;SDS011;57491;42.694;23.314;2024-01-10T15:16:15;20.23;;;11.53;;
70126;SDS011;57491;42.694;23.314;2024-01-10T15:18:42;22.53;;;10.97;;